« Back
NWS Peachtree City, Ga » Text Product » ATL Terminal Aerodrome Forecast


Printer-friendly Version
Current Version              Previous Versions:   1  2  3  4  5  6  7  8  9  

Terminal Aerodrome Forecast

827
FTUS42 KFFC 252333
TAFATL
TAF
KATL 252333Z 2600/2706 19009KT P6SM FEW070
     FM260200 17004KT P6SM SCT150
     FM260700 15004KT P6SM SCT050
     FM261400 22007KT P6SM SCT060
     FM270100 17004KT P6SM SCT250=

USA.gov is the U.S. government's official web portal to all federal, state and local government web resources and services.